METAR AND TAF INFORMATION
METAR FOR SAOC
ADDS - METARS form results

(1557 UTC 19 December 2018)
Data provider http://aviationweather.gov/metar/data/
 
METAR text: SAOC 191500Z 05012KT 9999 FEW035TCU 27/12 Q1010
Conditions at: SAOC (RIO CUARTO AIRPO, AR) observed 1500 UTC 19 December 2018
Temperature: 27.0°C (81°F)
Dewpoint: 12.0°C (54°F) [RH = 39%]
Pressure (altimeter): 29.82 inches Hg (1010.0 mb)
Winds: from the NE (50 degrees) at 14 MPH (12 knots; 6.2 m/s)
Visibility: 6 or more miles (10+ km)
Ceiling: at least 12,000 feet AGL
Clouds: few clouds at 3500 feet AGL
Weather: no significant weather observed at this time

 AIRPORT MAP

 RUNWAY INFORMATION
Runway 18 Runway length 6808 ft Runway width 131 ft
Runway elevation 0 ft Runway displaced threshold 0 ft Runway heading 0
Runway 36 Runway length 6808 ft Runway width 131 ft
Runway elevation 0 ft Runway displaced threshold 0 ft Runway heading 0
Runway 5 Runway length 7431 ft Runway width 148 ft
Runway elevation 1381 ft Runway displaced threshold 0 ft Runway heading 178
Runway 23 Runway length 7431 ft Runway width 148 ft
Runway elevation 1381 ft Runway displaced threshold 0 ft Runway heading 358

 AIRPORT FREQUENCIES
Type APP Name APP/TWR Frequency 118.75 MHZ

 AIRPORT NEAR NAVIGATION AIDS
Type VOR Name Rio Cuarto Frequency 114200 KHZ